sensor_id;sensor_type;location;lat;lon;timestamp;P1;durP1;ratioP1;P2;durP2;ratioP2
35444;SDS011;21562;49.476;6.086;2024-02-21T00:00:20;15.98;;;6.35;;
35444;SDS011;21562;49.476;6.086;2024-02-21T00:02:46;20.73;;;6.55;;
35444;SDS011;21562;49.476;6.086;2024-02-21T00:05:11;24.58;;;7.78;;
35444;SDS011;21562;49.476;6.086;2024-02-21T00:07:37;14.65;;;7.25;;
35444;SDS011;21562;49.476;6.086;2024-02-21T00:10:03;14.07;;;6.43;;
35444;SDS011;21562;49.476;6.086;2024-02-21T00:12:29;23.00;;;7.60;;
35444;SDS011;21562;49.476;6.086;2024-02-21T00:14:54;35.85;;;7.68;;
35444;SDS011;21562;49.476;6.086;2024-02-21T00:17:20;18.65;;;7.65;;
35444;SDS011;21562;49.476;6.086;2024-02-21T00:19:46;23.60;;;8.05;;
35444;SDS011;21562;49.476;6.086;2024-02-21T00:22:11;19.27;;;7.55;;
35444;SDS011;21562;49.476;6.086;2024-02-21T00:24:37;27.92;;;9.13;;
35444;SDS011;21562;49.476;6.086;2024-02-21T00:27:03;14.82;;;6.50;;
35444;SDS011;21562;49.476;6.086;2024-02-21T00:29:29;26.88;;;7.45;;
35444;SDS011;21562;49.476;6.086;2024-02-21T00:31:54;20.42;;;7.85;;
35444;SDS011;21562;49.476;6.086;2024-02-21T00:34:20;20.25;;;6.88;;
35444;SDS011;21562;49.476;6.086;2024-02-21T00:36:46;17.13;;;7.40;;
35444;SDS011;21562;49.476;6.086;2024-02-21T00:39:11;23.13;;;7.22;;
35444;SDS011;21562;49.476;6.086;2024-02-21T00:41:37;23.80;;;7.10;;
35444;SDS011;21562;49.476;6.086;2024-02-21T00:44:03;21.00;;;7.40;;
35444;SDS011;21562;49.476;6.086;2024-02-21T00:46:30;16.38;;;6.55;;
35444;SDS011;21562;49.476;6.086;2024-02-21T00:48:56;20.13;;;7.53;;
35444;SDS011;21562;49.476;6.086;2024-02-21T00:51:22;21.90;;;7.05;;
35444;SDS011;21562;49.476;6.086;2024-02-21T00:53:47;22.58;;;8.00;;
35444;SDS011;21562;49.476;6.086;2024-02-21T00:56:13;23.45;;;7.30;;
35444;SDS011;21562;49.476;6.086;2024-02-21T00:58:39;19.17;;;7.15;;
35444;SDS011;21562;49.476;6.086;2024-02-21T01:01:04;26.85;;;7.72;;
35444;SDS011;21562;49.476;6.086;2024-02-21T01:03:30;20.50;;;7.03;;
35444;SDS011;21562;49.476;6.086;2024-02-21T01:05:56;23.35;;;7.78;;
35444;SDS011;21562;49.476;6.086;2024-02-21T01:08:21;23.50;;;7.47;;
35444;SDS011;21562;49.476;6.086;2024-02-21T01:10:47;22.88;;;7.93;;
35444;SDS011;21562;49.476;6.086;2024-02-21T01:13:13;29.60;;;8.27;;
35444;SDS011;21562;49.476;6.086;2024-02-21T01:15:39;26.65;;;7.90;;
35444;SDS011;21562;49.476;6.086;2024-02-21T01:18:04;24.08;;;7.90;;
35444;SDS011;21562;49.476;6.086;2024-02-21T01:20:31;26.15;;;7.75;;
35444;SDS011;21562;49.476;6.086;2024-02-21T01:22:57;30.15;;;7.40;;
35444;SDS011;21562;49.476;6.086;2024-02-21T01:25:22;21.52;;;7.35;;
35444;SDS011;21562;49.476;6.086;2024-02-21T01:27:48;30.35;;;7.35;;
35444;SDS011;21562;49.476;6.086;2024-02-21T01:30:14;25.17;;;7.28;;
35444;SDS011;21562;49.476;6.086;2024-02-21T01:32:40;24.20;;;7.60;;
35444;SDS011;21562;49.476;6.086;2024-02-21T01:35:06;27.13;;;7.40;;
35444;SDS011;21562;49.476;6.086;2024-02-21T01:37:32;26.17;;;6.95;;
35444;SDS011;21562;49.476;6.086;2024-02-21T01:39:58;22.45;;;7.53;;
35444;SDS011;21562;49.476;6.086;2024-02-21T01:42:24;22.92;;;7.03;;
35444;SDS011;21562;49.476;6.086;2024-02-21T01:44:50;19.73;;;6.25;;
35444;SDS011;21562;49.476;6.086;2024-02-21T01:47:17;22.58;;;6.40;;
35444;SDS011;21562;49.476;6.086;2024-02-21T01:49:43;22.45;;;6.65;;
35444;SDS011;21562;49.476;6.086;2024-02-21T01:52:10;17.30;;;6.95;;
35444;SDS011;21562;49.476;6.086;2024-02-21T01:54:39;20.67;;;6.70;;
35444;SDS011;21562;49.476;6.086;2024-02-21T01:57:05;24.55;;;6.85;;
35444;SDS011;21562;49.476;6.086;2024-02-21T01:59:31;23.48;;;6.50;;
35444;SDS011;21562;49.476;6.086;2024-02-21T02:01:56;26.90;;;7.47;;
35444;SDS011;21562;49.476;6.086;2024-02-21T02:04:23;26.63;;;6.90;;
35444;SDS011;21562;49.476;6.086;2024-02-21T02:06:50;25.92;;;6.30;;
35444;SDS011;21562;49.476;6.086;2024-02-21T02:09:16;18.92;;;6.43;;
35444;SDS011;21562;49.476;6.086;2024-02-21T02:11:42;27.35;;;6.50;;
35444;SDS011;21562;49.476;6.086;2024-02-21T02:14:08;23.17;;;6.80;;
35444;SDS011;21562;49.476;6.086;2024-02-21T02:16:34;30.30;;;5.97;;
35444;SDS011;21562;49.476;6.086;2024-02-21T02:19:00;24.92;;;6.60;;
35444;SDS011;21562;49.476;6.086;2024-02-21T02:21:29;21.60;;;6.75;;
35444;SDS011;21562;49.476;6.086;2024-02-21T02:23:57;23.98;;;6.43;;
35444;SDS011;21562;49.476;6.086;2024-02-21T02:26:24;23.90;;;6.50;;
35444;SDS011;21562;49.476;6.086;2024-02-21T02:28:50;23.35;;;6.53;;
35444;SDS011;21562;49.476;6.086;2024-02-21T02:31:15;26.73;;;7.70;;
35444;SDS011;21562;49.476;6.086;2024-02-21T02:33:44;23.60;;;6.35;;
35444;SDS011;21562;49.476;6.086;2024-02-21T02:36:10;29.48;;;7.72;;
35444;SDS011;21562;49.476;6.086;2024-02-21T02:38:36;23.92;;;7.32;;
35444;SDS011;21562;49.476;6.086;2024-02-21T02:41:02;25.17;;;7.07;;
35444;SDS011;21562;49.476;6.086;2024-02-21T02:43:28;24.02;;;6.63;;
35444;SDS011;21562;49.476;6.086;2024-02-21T02:45:53;20.02;;;7.35;;
35444;SDS011;21562;49.476;6.086;2024-02-21T02:48:20;21.92;;;7.05;;
35444;SDS011;21562;49.476;6.086;2024-02-21T02:50:46;32.17;;;8.10;;
35444;SDS011;21562;49.476;6.086;2024-02-21T02:53:12;27.13;;;8.00;;
35444;SDS011;21562;49.476;6.086;2024-02-21T02:55:38;24.63;;;8.55;;
35444;SDS011;21562;49.476;6.086;2024-02-21T02:58:03;23.52;;;7.28;;
35444;SDS011;21562;49.476;6.086;2024-02-21T03:00:29;25.40;;;7.28;;
35444;SDS011;21562;49.476;6.086;2024-02-21T03:02:55;29.42;;;8.32;;
35444;SDS011;21562;49.476;6.086;2024-02-21T03:05:21;25.80;;;7.35;;
35444;SDS011;21562;49.476;6.086;2024-02-21T03:07:47;30.08;;;8.50;;
35444;SDS011;21562;49.476;6.086;2024-02-21T03:10:14;28.60;;;7.68;;
35444;SDS011;21562;49.476;6.086;2024-02-21T03:12:43;23.35;;;7.18;;
35444;SDS011;21562;49.476;6.086;2024-02-21T03:15:08;23.63;;;7.00;;
35444;SDS011;21562;49.476;6.086;2024-02-21T03:17:34;25.08;;;7.88;;
35444;SDS011;21562;49.476;6.086;2024-02-21T03:20:03;17.88;;;6.30;;
35444;SDS011;21562;49.476;6.086;2024-02-21T03:22:30;22.83;;;7.50;;
35444;SDS011;21562;49.476;6.086;2024-02-21T03:24:57;20.98;;;7.45;;
35444;SDS011;21562;49.476;6.086;2024-02-21T03:27:23;24.83;;;7.80;;
35444;SDS011;21562;49.476;6.086;2024-02-21T03:29:48;19.55;;;6.60;;
35444;SDS011;21562;49.476;6.086;2024-02-21T03:32:14;19.02;;;6.72;;
35444;SDS011;21562;49.476;6.086;2024-02-21T03:34:40;31.55;;;7.78;;
35444;SDS011;21562;49.476;6.086;2024-02-21T03:37:05;24.25;;;7.30;;
35444;SDS011;21562;49.476;6.086;2024-02-21T03:39:31;20.23;;;6.93;;
35444;SDS011;21562;49.476;6.086;2024-02-21T03:41:57;26.55;;;7.60;;
35444;SDS011;21562;49.476;6.086;2024-02-21T03:44:25;23.83;;;6.47;;
35444;SDS011;21562;49.476;6.086;2024-02-21T03:46:52;21.42;;;6.65;;
35444;SDS011;21562;49.476;6.086;2024-02-21T03:49:18;25.80;;;7.30;;
35444;SDS011;21562;49.476;6.086;2024-02-21T03:51:43;22.92;;;7.25;;
35444;SDS011;21562;49.476;6.086;2024-02-21T03:54:09;23.95;;;6.28;;
35444;SDS011;21562;49.476;6.086;2024-02-21T03:56:38;22.80;;;6.82;;
35444;SDS011;21562;49.476;6.086;2024-02-21T03:59:05;29.08;;;7.50;;
35444;SDS011;21562;49.476;6.086;2024-02-21T04:01:31;29.77;;;7.25;;
35444;SDS011;21562;49.476;6.086;2024-02-21T04:03:57;25.88;;;6.97;;
35444;SDS011;21562;49.476;6.086;2024-02-21T04:06:23;25.75;;;7.50;;
35444;SDS011;21562;49.476;6.086;2024-02-21T04:08:48;33.10;;;8.65;;
35444;SDS011;21562;49.476;6.086;2024-02-21T04:11:14;30.10;;;9.13;;
35444;SDS011;21562;49.476;6.086;2024-02-21T04:13:40;22.90;;;7.55;;
35444;SDS011;21562;49.476;6.086;2024-02-21T04:16:05;19.40;;;7.72;;
35444;SDS011;21562;49.476;6.086;2024-02-21T04:18:31;26.15;;;8.27;;
35444;SDS011;21562;49.476;6.086;2024-02-21T04:20:57;26.65;;;7.72;;
35444;SDS011;21562;49.476;6.086;2024-02-21T04:23:23;24.40;;;7.93;;
35444;SDS011;21562;49.476;6.086;2024-02-21T04:25:49;26.38;;;8.35;;
35444;SDS011;21562;49.476;6.086;2024-02-21T04:28:14;20.42;;;7.47;;
35444;SDS011;21562;49.476;6.086;2024-02-21T04:30:40;31.50;;;7.88;;
35444;SDS011;21562;49.476;6.086;2024-02-21T04:33:06;27.65;;;8.95;;
35444;SDS011;21562;49.476;6.086;2024-02-21T04:35:31;29.38;;;8.10;;
35444;SDS011;21562;49.476;6.086;2024-02-21T04:37:57;28.20;;;9.02;;
35444;SDS011;21562;49.476;6.086;2024-02-21T04:40:23;33.28;;;8.18;;
35444;SDS011;21562;49.476;6.086;2024-02-21T04:42:49;26.55;;;8.65;;
35444;SDS011;21562;49.476;6.086;2024-02-21T04:45:14;30.55;;;8.23;;
35444;SDS011;21562;49.476;6.086;2024-02-21T04:47:40;30.73;;;8.45;;
35444;SDS011;21562;49.476;6.086;2024-02-21T04:50:07;20.17;;;7.82;;
35444;SDS011;21562;49.476;6.086;2024-02-21T04:52:33;34.80;;;9.10;;
35444;SDS011;21562;49.476;6.086;2024-02-21T04:54:59;29.20;;;8.68;;
35444;SDS011;21562;49.476;6.086;2024-02-21T04:57:25;31.50;;;9.15;;
35444;SDS011;21562;49.476;6.086;2024-02-21T04:59:50;27.13;;;8.85;;
35444;SDS011;21562;49.476;6.086;2024-02-21T05:02:17;34.40;;;8.20;;
35444;SDS011;21562;49.476;6.086;2024-02-21T05:04:44;28.20;;;8.10;;
35444;SDS011;21562;49.476;6.086;2024-02-21T05:07:10;21.50;;;8.52;;
35444;SDS011;21562;49.476;6.086;2024-02-21T05:09:36;25.50;;;8.57;;
35444;SDS011;21562;49.476;6.086;2024-02-21T05:12:02;33.15;;;7.90;;
35444;SDS011;21562;49.476;6.086;2024-02-21T05:14:29;23.70;;;7.38;;
35444;SDS011;21562;49.476;6.086;2024-02-21T05:16:54;20.70;;;7.38;;
35444;SDS011;21562;49.476;6.086;2024-02-21T05:19:20;32.45;;;7.65;;
35444;SDS011;21562;49.476;6.086;2024-02-21T05:21:46;18.02;;;6.38;;
35444;SDS011;21562;49.476;6.086;2024-02-21T05:24:12;22.08;;;6.63;;
35444;SDS011;21562;49.476;6.086;2024-02-21T05:26:37;18.15;;;5.97;;
35444;SDS011;21562;49.476;6.086;2024-02-21T05:29:03;20.45;;;6.72;;
35444;SDS011;21562;49.476;6.086;2024-02-21T05:31:42;23.00;;;7.28;;
35444;SDS011;21562;49.476;6.086;2024-02-21T05:34:22;28.60;;;6.93;;
35444;SDS011;21562;49.476;6.086;2024-02-21T05:36:48;24.23;;;8.25;;
35444;SDS011;21562;49.476;6.086;2024-02-21T05:39:17;20.92;;;6.20;;
35444;SDS011;21562;49.476;6.086;2024-02-21T05:41:43;18.63;;;5.68;;
35444;SDS011;21562;49.476;6.086;2024-02-21T05:44:09;19.58;;;7.10;;
35444;SDS011;21562;49.476;6.086;2024-02-21T05:46:35;22.60;;;6.28;;
35444;SDS011;21562;49.476;6.086;2024-02-21T05:49:01;18.85;;;5.65;;
35444;SDS011;21562;49.476;6.086;2024-02-21T05:51:27;17.20;;;6.60;;
35444;SDS011;21562;49.476;6.086;2024-02-21T05:53:52;22.00;;;6.63;;
35444;SDS011;21562;49.476;6.086;2024-02-21T05:56:18;15.80;;;5.93;;
35444;SDS011;21562;49.476;6.086;2024-02-21T05:58:44;17.55;;;6.15;;
35444;SDS011;21562;49.476;6.086;2024-02-21T06:01:10;28.30;;;6.68;;
35444;SDS011;21562;49.476;6.086;2024-02-21T06:03:36;14.18;;;5.40;;
35444;SDS011;21562;49.476;6.086;2024-02-21T06:06:02;16.27;;;6.03;;
35444;SDS011;21562;49.476;6.086;2024-02-21T06:08:30;21.73;;;5.85;;
35444;SDS011;21562;49.476;6.086;2024-02-21T06:10:56;18.88;;;6.47;;
35444;SDS011;21562;49.476;6.086;2024-02-21T06:13:23;20.45;;;5.68;;
35444;SDS011;21562;49.476;6.086;2024-02-21T06:15:49;17.75;;;6.50;;
35444;SDS011;21562;49.476;6.086;2024-02-21T06:18:16;16.00;;;5.50;;
35444;SDS011;21562;49.476;6.086;2024-02-21T06:20:42;15.95;;;5.45;;
35444;SDS011;21562;49.476;6.086;2024-02-21T06:23:09;22.08;;;5.03;;
35444;SDS011;21562;49.476;6.086;2024-02-21T06:25:34;16.75;;;4.97;;
35444;SDS011;21562;49.476;6.086;2024-02-21T06:28:00;21.15;;;6.22;;
35444;SDS011;21562;49.476;6.086;2024-02-21T06:30:26;21.90;;;5.35;;
35444;SDS011;21562;49.476;6.086;2024-02-21T06:32:52;21.85;;;6.78;;
35444;SDS011;21562;49.476;6.086;2024-02-21T06:35:20;18.02;;;5.32;;
35444;SDS011;21562;49.476;6.086;2024-02-21T06:37:49;13.02;;;4.70;;
35444;SDS011;21562;49.476;6.086;2024-02-21T06:40:16;18.15;;;5.55;;
35444;SDS011;21562;49.476;6.086;2024-02-21T06:42:43;18.48;;;5.43;;
35444;SDS011;21562;49.476;6.086;2024-02-21T06:45:08;13.95;;;5.03;;
35444;SDS011;21562;49.476;6.086;2024-02-21T06:47:34;13.00;;;5.13;;
35444;SDS011;21562;49.476;6.086;2024-02-21T06:50:00;15.73;;;5.30;;
35444;SDS011;21562;49.476;6.086;2024-02-21T06:52:26;14.68;;;4.85;;
35444;SDS011;21562;49.476;6.086;2024-02-21T06:54:51;11.77;;;4.55;;
35444;SDS011;21562;49.476;6.086;2024-02-21T06:57:17;19.67;;;5.32;;
35444;SDS011;21562;49.476;6.086;2024-02-21T06:59:43;16.95;;;4.80;;
35444;SDS011;21562;49.476;6.086;2024-02-21T07:02:09;21.25;;;5.75;;
35444;SDS011;21562;49.476;6.086;2024-02-21T07:04:34;15.80;;;5.80;;
35444;SDS011;21562;49.476;6.086;2024-02-21T07:07:00;17.25;;;4.32;;
35444;SDS011;21562;49.476;6.086;2024-02-21T07:09:26;20.30;;;4.72;;
35444;SDS011;21562;49.476;6.086;2024-02-21T07:11:53;14.88;;;4.85;;
35444;SDS011;21562;49.476;6.086;2024-02-21T07:14:19;14.25;;;4.15;;
35444;SDS011;21562;49.476;6.086;2024-02-21T07:16:45;17.75;;;5.15;;
35444;SDS011;21562;49.476;6.086;2024-02-21T07:19:11;18.92;;;4.72;;
35444;SDS011;21562;49.476;6.086;2024-02-21T07:21:36;16.55;;;4.57;;
35444;SDS011;21562;49.476;6.086;2024-02-21T07:24:07;24.45;;;5.18;;
35444;SDS011;21562;49.476;6.086;2024-02-21T07:26:33;16.88;;;4.72;;
35444;SDS011;21562;49.476;6.086;2024-02-21T07:28:59;19.48;;;4.72;;
35444;SDS011;21562;49.476;6.086;2024-02-21T07:31:25;15.02;;;4.55;;
35444;SDS011;21562;49.476;6.086;2024-02-21T07:33:51;17.08;;;6.40;;
35444;SDS011;21562;49.476;6.086;2024-02-21T07:36:25;19.90;;;4.68;;
35444;SDS011;21562;49.476;6.086;2024-02-21T07:38:55;17.60;;;4.60;;
35444;SDS011;21562;49.476;6.086;2024-02-21T07:41:21;16.98;;;5.32;;
35444;SDS011;21562;49.476;6.086;2024-02-21T07:43:46;14.15;;;4.95;;
35444;SDS011;21562;49.476;6.086;2024-02-21T07:46:13;19.10;;;4.93;;
35444;SDS011;21562;49.476;6.086;2024-02-21T07:48:40;20.85;;;4.78;;
35444;SDS011;21562;49.476;6.086;2024-02-21T07:51:05;12.32;;;4.55;;
35444;SDS011;21562;49.476;6.086;2024-02-21T07:53:31;15.98;;;4.78;;
35444;SDS011;21562;49.476;6.086;2024-02-21T07:55:57;19.85;;;4.40;;
35444;SDS011;21562;49.476;6.086;2024-02-21T07:58:22;26.33;;;4.55;;
35444;SDS011;21562;49.476;6.086;2024-02-21T08:00:48;15.63;;;5.18;;
35444;SDS011;21562;49.476;6.086;2024-02-21T08:03:14;21.13;;;4.72;;
35444;SDS011;21562;49.476;6.086;2024-02-21T08:05:42;13.73;;;4.68;;
35444;SDS011;21562;49.476;6.086;2024-02-21T08:08:09;19.27;;;5.45;;
35444;SDS011;21562;49.476;6.086;2024-02-21T08:10:34;23.25;;;4.75;;
35444;SDS011;21562;49.476;6.086;2024-02-21T08:13:00;12.32;;;4.63;;
35444;SDS011;21562;49.476;6.086;2024-02-21T08:15:26;16.10;;;4.30;;
35444;SDS011;21562;49.476;6.086;2024-02-21T08:17:55;15.52;;;5.00;;
35444;SDS011;21562;49.476;6.086;2024-02-21T08:20:24;17.52;;;4.20;;
35444;SDS011;21562;49.476;6.086;2024-02-21T08:22:50;16.88;;;4.75;;
35444;SDS011;21562;49.476;6.086;2024-02-21T08:25:16;15.88;;;4.38;;
35444;SDS011;21562;49.476;6.086;2024-02-21T08:27:41;18.85;;;5.07;;
35444;SDS011;21562;49.476;6.086;2024-02-21T08:30:07;17.75;;;4.97;;
35444;SDS011;21562;49.476;6.086;2024-02-21T08:32:33;16.33;;;4.55;;
35444;SDS011;21562;49.476;6.086;2024-02-21T08:35:01;11.38;;;3.85;;
35444;SDS011;21562;49.476;6.086;2024-02-21T08:37:27;15.68;;;4.18;;
35444;SDS011;21562;49.476;6.086;2024-02-21T08:39:52;10.57;;;3.95;;
35444;SDS011;21562;49.476;6.086;2024-02-21T08:42:18;22.23;;;5.10;;
35444;SDS011;21562;49.476;6.086;2024-02-21T08:44:44;16.85;;;4.03;;
35444;SDS011;21562;49.476;6.086;2024-02-21T08:47:10;22.02;;;5.15;;
35444;SDS011;21562;49.476;6.086;2024-02-21T08:49:36;20.50;;;5.10;;
35444;SDS011;21562;49.476;6.086;2024-02-21T08:52:02;14.10;;;4.68;;
35444;SDS011;21562;49.476;6.086;2024-02-21T08:54:28;17.52;;;5.28;;
35444;SDS011;21562;49.476;6.086;2024-02-21T08:56:56;20.40;;;4.13;;
35444;SDS011;21562;49.476;6.086;2024-02-21T08:59:21;15.65;;;4.20;;
35444;SDS011;21562;49.476;6.086;2024-02-21T09:01:47;19.63;;;4.68;;
35444;SDS011;21562;49.476;6.086;2024-02-21T09:04:13;17.23;;;4.80;;
35444;SDS011;21562;49.476;6.086;2024-02-21T09:06:39;17.70;;;4.35;;
35444;SDS011;21562;49.476;6.086;2024-02-21T09:09:10;20.00;;;3.85;;
35444;SDS011;21562;49.476;6.086;2024-02-21T09:11:36;16.27;;;5.60;;
35444;SDS011;21562;49.476;6.086;2024-02-21T09:14:02;14.15;;;3.97;;
35444;SDS011;21562;49.476;6.086;2024-02-21T09:16:30;22.67;;;4.85;;
35444;SDS011;21562;49.476;6.086;2024-02-21T09:18:57;23.25;;;4.28;;
35444;SDS011;21562;49.476;6.086;2024-02-21T09:21:22;23.13;;;5.28;;
35444;SDS011;21562;49.476;6.086;2024-02-21T09:23:48;15.95;;;4.38;;
35444;SDS011;21562;49.476;6.086;2024-02-21T09:26:14;18.05;;;4.47;;
35444;SDS011;21562;49.476;6.086;2024-02-21T09:28:42;20.23;;;4.50;;
35444;SDS011;21562;49.476;6.086;2024-02-21T09:31:08;22.98;;;4.80;;
35444;SDS011;21562;49.476;6.086;2024-02-21T09:33:34;20.23;;;4.35;;
35444;SDS011;21562;49.476;6.086;2024-02-21T09:35:59;16.23;;;4.95;;
35444;SDS011;21562;49.476;6.086;2024-02-21T09:38:26;16.50;;;4.60;;
35444;SDS011;21562;49.476;6.086;2024-02-21T09:43:56;16.75;;;4.32;;
35444;SDS011;21562;49.476;6.086;2024-02-21T09:46:44;18.88;;;4.80;;
35444;SDS011;21562;49.476;6.086;2024-02-21T09:49:31;15.68;;;4.68;;
35444;SDS011;21562;49.476;6.086;2024-02-21T09:51:58;18.70;;;4.85;;
35444;SDS011;21562;49.476;6.086;2024-02-21T09:54:28;15.70;;;4.50;;
35444;SDS011;21562;49.476;6.086;2024-02-21T09:56:55;19.85;;;5.15;;
35444;SDS011;21562;49.476;6.086;2024-02-21T09:59:20;16.75;;;4.55;;
35444;SDS011;21562;49.476;6.086;2024-02-21T10:01:47;19.73;;;3.38;;
35444;SDS011;21562;49.476;6.086;2024-02-21T10:04:13;15.65;;;3.70;;
35444;SDS011;21562;49.476;6.086;2024-02-21T10:06:39;17.55;;;4.28;;
35444;SDS011;21562;49.476;6.086;2024-02-21T10:09:07;14.50;;;3.72;;
35444;SDS011;21562;49.476;6.086;2024-02-21T10:11:33;21.38;;;4.10;;
35444;SDS011;21562;49.476;6.086;2024-02-21T10:14:04;21.48;;;4.88;;
35444;SDS011;21562;49.476;6.086;2024-02-21T10:16:31;17.27;;;3.60;;
35444;SDS011;21562;49.476;6.086;2024-02-21T10:18:57;33.38;;;6.90;;
35444;SDS011;21562;49.476;6.086;2024-02-21T10:21:22;22.08;;;4.10;;
35444;SDS011;21562;49.476;6.086;2024-02-21T10:23:48;17.75;;;3.97;;
35444;SDS011;21562;49.476;6.086;2024-02-21T10:26:15;18.30;;;3.63;;
35444;SDS011;21562;49.476;6.086;2024-02-21T10:28:42;8.60;;;3.35;;
35444;SDS011;21562;49.476;6.086;2024-02-21T10:31:11;17.45;;;4.20;;
35444;SDS011;21562;49.476;6.086;2024-02-21T10:33:37;23.85;;;4.38;;
35444;SDS011;21562;49.476;6.086;2024-02-21T10:36:06;21.15;;;3.92;;
35444;SDS011;21562;49.476;6.086;2024-02-21T10:38:38;20.73;;;4.40;;
35444;SDS011;21562;49.476;6.086;2024-02-21T10:41:05;19.25;;;4.05;;
35444;SDS011;21562;49.476;6.086;2024-02-21T10:43:38;17.63;;;4.82;;
35444;SDS011;21562;49.476;6.086;2024-02-21T10:46:08;15.13;;;3.53;;
35444;SDS011;21562;49.476;6.086;2024-02-21T10:48:42;20.55;;;4.53;;
35444;SDS011;21562;49.476;6.086;2024-02-21T10:51:16;19.75;;;3.80;;
35444;SDS011;21562;49.476;6.086;2024-02-21T10:59:06;16.40;;;4.10;;
35444;SDS011;21562;49.476;6.086;2024-02-21T11:01:33;23.45;;;5.97;;
35444;SDS011;21562;49.476;6.086;2024-02-21T11:04:07;18.05;;;3.47;;
35444;SDS011;21562;49.476;6.086;2024-02-21T11:06:35;18.10;;;3.20;;
35444;SDS011;21562;49.476;6.086;2024-02-21T11:09:06;15.98;;;3.30;;
35444;SDS011;21562;49.476;6.086;2024-02-21T11:11:37;16.20;;;4.28;;
35444;SDS011;21562;49.476;6.086;2024-02-21T11:14:05;14.77;;;3.33;;
35444;SDS011;21562;49.476;6.086;2024-02-21T11:16:35;15.63;;;3.40;;
35444;SDS011;21562;49.476;6.086;2024-02-21T11:19:05;16.85;;;3.72;;
35444;SDS011;21562;49.476;6.086;2024-02-21T11:21:37;13.95;;;4.13;;
35444;SDS011;21562;49.476;6.086;2024-02-21T11:24:03;18.10;;;3.60;;
35444;SDS011;21562;49.476;6.086;2024-02-21T11:26:30;13.20;;;3.65;;
35444;SDS011;21562;49.476;6.086;2024-02-21T11:28:57;13.90;;;3.42;;
35444;SDS011;21562;49.476;6.086;2024-02-21T11:31:24;15.60;;;2.95;;
35444;SDS011;21562;49.476;6.086;2024-02-21T11:33:52;20.38;;;3.17;;
35444;SDS011;21562;49.476;6.086;2024-02-21T11:36:25;13.10;;;3.42;;
35444;SDS011;21562;49.476;6.086;2024-02-21T11:38:52;13.25;;;3.70;;
35444;SDS011;21562;49.476;6.086;2024-02-21T11:41:20;15.52;;;3.60;;
35444;SDS011;21562;49.476;6.086;2024-02-21T11:43:48;23.30;;;4.45;;
35444;SDS011;21562;49.476;6.086;2024-02-21T11:46:15;13.50;;;3.35;;
35444;SDS011;21562;49.476;6.086;2024-02-21T11:48:42;16.38;;;3.33;;
35444;SDS011;21562;49.476;6.086;2024-02-21T11:51:20;12.80;;;3.53;;
35444;SDS011;21562;49.476;6.086;2024-02-21T11:53:48;12.93;;;2.97;;
35444;SDS011;21562;49.476;6.086;2024-02-21T11:56:14;8.20;;;2.45;;
35444;SDS011;21562;49.476;6.086;2024-02-21T11:58:39;13.25;;;3.60;;
35444;SDS011;21562;49.476;6.086;2024-02-21T12:01:05;14.60;;;3.22;;
35444;SDS011;21562;49.476;6.086;2024-02-21T12:03:32;12.65;;;4.43;;
35444;SDS011;21562;49.476;6.086;2024-02-21T12:06:00;14.85;;;3.38;;
35444;SDS011;21562;49.476;6.086;2024-02-21T12:08:28;10.02;;;3.38;;
35444;SDS011;21562;49.476;6.086;2024-02-21T12:11:19;12.05;;;3.30;;
35444;SDS011;21562;49.476;6.086;2024-02-21T12:14:09;12.80;;;3.55;;
35444;SDS011;21562;49.476;6.086;2024-02-21T12:16:34;15.98;;;3.38;;
35444;SDS011;21562;49.476;6.086;2024-02-21T12:19:02;15.05;;;3.45;;
35444;SDS011;21562;49.476;6.086;2024-02-21T12:21:32;13.80;;;3.40;;
35444;SDS011;21562;49.476;6.086;2024-02-21T12:26:40;11.88;;;3.05;;
35444;SDS011;21562;49.476;6.086;2024-02-21T12:29:06;12.15;;;3.30;;
35444;SDS011;21562;49.476;6.086;2024-02-21T12:31:35;12.63;;;2.95;;
35444;SDS011;21562;49.476;6.086;2024-02-21T12:34:02;13.73;;;3.33;;
35444;SDS011;21562;49.476;6.086;2024-02-21T12:36:29;11.65;;;3.25;;
35444;SDS011;21562;49.476;6.086;2024-02-21T12:38:58;11.18;;;2.92;;
35444;SDS011;21562;49.476;6.086;2024-02-21T12:41:25;16.13;;;3.17;;
35444;SDS011;21562;49.476;6.086;2024-02-21T12:43:52;11.75;;;2.95;;
35444;SDS011;21562;49.476;6.086;2024-02-21T12:46:18;17.63;;;4.07;;
35444;SDS011;21562;49.476;6.086;2024-02-21T12:48:44;9.38;;;3.10;;
35444;SDS011;21562;49.476;6.086;2024-02-21T12:51:09;20.83;;;3.80;;
35444;SDS011;21562;49.476;6.086;2024-02-21T12:53:35;11.65;;;2.65;;
35444;SDS011;21562;49.476;6.086;2024-02-21T12:56:01;10.52;;;2.88;;
35444;SDS011;21562;49.476;6.086;2024-02-21T12:58:27;6.43;;;2.30;;
35444;SDS011;21562;49.476;6.086;2024-02-21T13:00:56;6.68;;;2.58;;
35444;SDS011;21562;49.476;6.086;2024-02-21T13:03:22;17.80;;;2.88;;
35444;SDS011;21562;49.476;6.086;2024-02-21T13:05:48;9.65;;;2.67;;
35444;SDS011;21562;49.476;6.086;2024-02-21T13:08:13;13.15;;;2.83;;
35444;SDS011;21562;49.476;6.086;2024-02-21T13:10:39;11.48;;;3.22;;
35444;SDS011;21562;49.476;6.086;2024-02-21T13:13:05;11.73;;;2.70;;
35444;SDS011;21562;49.476;6.086;2024-02-21T13:15:30;5.63;;;2.20;;
35444;SDS011;21562;49.476;6.086;2024-02-21T13:17:56;12.18;;;3.15;;
35444;SDS011;21562;49.476;6.086;2024-02-21T13:20:23;11.77;;;2.53;;
35444;SDS011;21562;49.476;6.086;2024-02-21T13:22:50;11.10;;;2.78;;
35444;SDS011;21562;49.476;6.086;2024-02-21T13:25:16;12.40;;;3.22;;
35444;SDS011;21562;49.476;6.086;2024-02-21T13:27:45;10.85;;;2.67;;
35444;SDS011;21562;49.476;6.086;2024-02-21T13:30:11;9.02;;;2.85;;
35444;SDS011;21562;49.476;6.086;2024-02-21T13:32:38;13.65;;;3.22;;
35444;SDS011;21562;49.476;6.086;2024-02-21T13:35:04;12.55;;;2.55;;
35444;SDS011;21562;49.476;6.086;2024-02-21T13:37:30;13.82;;;2.92;;
35444;SDS011;21562;49.476;6.086;2024-02-21T13:39:57;10.00;;;2.67;;
35444;SDS011;21562;49.476;6.086;2024-02-21T13:42:22;9.38;;;2.30;;
35444;SDS011;21562;49.476;6.086;2024-02-21T13:44:52;13.77;;;3.42;;
35444;SDS011;21562;49.476;6.086;2024-02-21T13:47:18;14.75;;;3.05;;
35444;SDS011;21562;49.476;6.086;2024-02-21T13:49:43;14.30;;;2.63;;
35444;SDS011;21562;49.476;6.086;2024-02-21T13:52:09;8.88;;;2.50;;
35444;SDS011;21562;49.476;6.086;2024-02-21T13:54:35;11.45;;;2.60;;
35444;SDS011;21562;49.476;6.086;2024-02-21T13:57:00;10.85;;;2.75;;
35444;SDS011;21562;49.476;6.086;2024-02-21T13:59:27;15.60;;;2.47;;
35444;SDS011;21562;49.476;6.086;2024-02-21T14:01:53;12.20;;;2.65;;
35444;SDS011;21562;49.476;6.086;2024-02-21T14:04:19;16.13;;;2.90;;
35444;SDS011;21562;49.476;6.086;2024-02-21T14:06:45;12.32;;;2.45;;
35444;SDS011;21562;49.476;6.086;2024-02-21T14:09:11;9.18;;;2.70;;
35444;SDS011;21562;49.476;6.086;2024-02-21T14:11:37;12.20;;;2.75;;
35444;SDS011;21562;49.476;6.086;2024-02-21T14:14:04;14.63;;;3.08;;
35444;SDS011;21562;49.476;6.086;2024-02-21T14:16:32;7.72;;;2.15;;
35444;SDS011;21562;49.476;6.086;2024-02-21T14:18:58;12.10;;;2.78;;
35444;SDS011;21562;49.476;6.086;2024-02-21T14:21:23;10.32;;;2.50;;
35444;SDS011;21562;49.476;6.086;2024-02-21T14:23:49;15.23;;;2.85;;
35444;SDS011;21562;49.476;6.086;2024-02-21T14:26:15;12.15;;;2.30;;
35444;SDS011;21562;49.476;6.086;2024-02-21T14:28:41;10.68;;;2.30;;
35444;SDS011;21562;49.476;6.086;2024-02-21T14:31:07;15.40;;;3.40;;
35444;SDS011;21562;49.476;6.086;2024-02-21T14:33:34;9.90;;;2.40;;
35444;SDS011;21562;49.476;6.086;2024-02-21T14:36:00;5.05;;;2.08;;
35444;SDS011;21562;49.476;6.086;2024-02-21T14:38:27;10.25;;;2.70;;
35444;SDS011;21562;49.476;6.086;2024-02-21T14:40:53;11.88;;;2.40;;
35444;SDS011;21562;49.476;6.086;2024-02-21T14:43:19;11.13;;;3.00;;